Hockley, Texas
Current Conditions -  °F | °C
As of 3:00 PM on Friday 28 Nov 2014 (Local Time) from KTME Reporting Station
Broken Clouds Broken Clouds  
Wind Chill: 72°   Ceiling: 5000
Heat Index: 72°   Visibility: 10mi
Dew Point: 54°   Wind: 16mph
Humidity: 53%   Direction: 190°S
Pressure: 30.19"   Gusts: 20mph
Location:  30.03°N, 95.84°W
Report Text: KTME 282100Z 19014G17KT 10SM FEW039 BKN050 22/12 A3019
Loading
Personal Weather Stations






























Interactive Weather Map New forecast layout! Learn more

10-Day Weather Forecast

Advertisements
Track Severe Weather on mobile